createdAt,value
2018-05-18T00:00:16.740Z,12.37
2018-05-18T00:01:16.775Z,12.31
2018-05-18T00:02:16.809Z,12.27
2018-05-18T00:03:16.849Z,12.32
2018-05-18T00:04:16.878Z,12.29
2018-05-18T00:05:16.912Z,12.24
2018-05-18T00:06:16.954Z,12.24
2018-05-18T00:07:16.981Z,12.29
2018-05-18T00:08:17.015Z,12.24
2018-05-18T00:09:17.049Z,12.27
2018-05-18T00:10:17.084Z,12.24
2018-05-18T00:11:17.118Z,12.29
2018-05-18T00:12:17.155Z,12.28
2018-05-18T00:13:17.199Z,12.32
2018-05-18T00:14:17.222Z,12.28
2018-05-18T00:15:17.257Z,12.31
2018-05-18T00:16:17.290Z,12.31
2018-05-18T00:17:17.325Z,12.29
2018-05-18T00:18:17.363Z,12.28
2018-05-18T00:19:17.393Z,12.20
2018-05-18T00:20:17.428Z,12.20
2018-05-18T00:21:17.462Z,12.24
2018-05-18T00:22:17.495Z,12.28
2018-05-18T00:23:17.532Z,12.13
2018-05-18T00:24:17.562Z,12.13
2018-05-18T00:25:17.602Z,12.14
2018-05-18T00:26:17.632Z,12.19
2018-05-18T00:27:17.665Z,12.13
2018-05-18T00:28:17.701Z,12.16
2018-05-18T00:29:17.733Z,12.16
2018-05-18T00:30:17.769Z,12.23
2018-05-18T00:31:17.805Z,12.24
2018-05-18T00:32:17.836Z,12.23
2018-05-18T00:33:17.873Z,12.19
2018-05-18T00:34:17.907Z,12.14
2018-05-18T00:35:17.941Z,12.16
2018-05-18T00:36:17.973Z,12.17
2018-05-18T00:37:18.008Z,12.23
2018-05-18T00:38:18.045Z,12.23
2018-05-18T00:39:18.077Z,12.28
2018-05-18T00:40:18.111Z,12.27
2018-05-18T00:41:18.144Z,12.19
2018-05-18T00:42:18.182Z,12.17
2018-05-18T00:43:18.215Z,12.23
2018-05-18T00:44:18.247Z,12.16
2018-05-18T00:45:18.283Z,12.16
2018-05-18T00:46:18.316Z,12.20
2018-05-18T00:47:18.351Z,12.19
2018-05-18T00:48:18.386Z,12.16
2018-05-18T00:49:18.418Z,12.19
2018-05-18T00:50:18.454Z,12.17
2018-05-18T00:51:18.488Z,12.21
2018-05-18T00:52:18.523Z,12.34
2018-05-18T00:53:18.556Z,12.28
2018-05-18T00:54:18.603Z,12.27
2018-05-18T00:55:18.628Z,12.19
2018-05-18T00:56:18.658Z,12.20
2018-05-18T00:57:18.695Z,12.23
2018-05-18T00:58:18.729Z,12.21
2018-05-18T00:59:18.760Z,12.21
2018-05-18T01:00:18.797Z,12.24
2018-05-18T01:01:18.830Z,12.29
2018-05-18T01:02:18.864Z,12.27
2018-05-18T01:03:18.947Z,12.31
2018-05-18T01:04:18.940Z,12.16
2018-05-18T01:05:18.976Z,12.23
2018-05-18T01:06:19.002Z,12.28
2018-05-18T01:07:19.037Z,12.19
2018-05-18T01:08:19.078Z,12.16
2018-05-18T01:09:19.107Z,12.16
2018-05-18T01:10:19.142Z,12.14
2018-05-18T01:11:19.173Z,12.12
2018-05-18T01:12:19.208Z,12.14
2018-05-18T01:13:19.242Z,12.14
2018-05-18T01:14:19.277Z,12.07
2018-05-18T01:15:19.312Z,12.05
2018-05-18T01:16:19.350Z,12.10
2018-05-18T01:17:19.381Z,12.05
2018-05-18T01:18:19.414Z,12.05
2018-05-18T01:19:19.450Z,12.07
2018-05-18T01:20:19.564Z,12.12
2018-05-18T01:21:19.524Z,11.99
2018-05-18T01:22:19.553Z,12.02
2018-05-18T01:23:19.591Z,12.04
2018-05-18T01:24:19.621Z,12.02
2018-05-18T01:25:19.656Z,12.04
2018-05-18T01:26:19.691Z,11.86
2018-05-18T01:27:19.726Z,11.91
2018-05-18T01:28:19.757Z,11.88
2018-05-18T01:29:19.790Z,11.91
2018-05-18T01:30:19.825Z,11.86
2018-05-18T01:31:19.862Z,11.95
2018-05-18T01:32:19.892Z,11.88
2018-05-18T01:33:19.929Z,11.98
2018-05-18T01:34:19.961Z,11.88
2018-05-18T01:35:19.998Z,11.94
2018-05-18T01:36:20.029Z,11.90
2018-05-18T01:37:20.067Z,11.80
2018-05-18T01:38:20.102Z,11.86
2018-05-18T01:39:20.132Z,11.82
2018-05-18T01:40:20.166Z,11.73
2018-05-18T01:41:20.200Z,11.73
2018-05-18T01:42:20.235Z,11.78
2018-05-18T01:43:20.276Z,11.78
2018-05-18T01:44:20.304Z,11.80
2018-05-18T01:45:20.337Z,11.80
2018-05-18T01:46:20.372Z,11.78
2018-05-18T01:47:20.415Z,11.75
2018-05-18T01:48:20.439Z,11.75
2018-05-18T01:49:20.475Z,11.69
2018-05-18T01:50:20.510Z,11.67
2018-05-18T01:51:20.549Z,11.70
2018-05-18T01:52:20.580Z,11.72
2018-05-18T01:53:20.613Z,11.76
2018-05-18T01:54:20.649Z,11.78
2018-05-18T01:55:20.678Z,11.79
2018-05-18T01:56:20.717Z,11.76
2018-05-18T01:57:20.756Z,11.73
2018-05-18T01:58:20.781Z,11.70
2018-05-18T01:59:20.817Z,11.72
2018-05-18T02:00:20.859Z,11.72
2018-05-18T02:01:20.883Z,11.72
2018-05-18T02:02:20.918Z,11.72
2018-05-18T02:03:20.954Z,11.78
2018-05-18T02:04:20.991Z,11.69
2018-05-18T02:05:21.021Z,11.70
2018-05-18T02:06:21.055Z,11.76
2018-05-18T02:07:21.088Z,11.69
2018-05-18T02:08:21.134Z,11.70
2018-05-18T02:09:21.155Z,11.82
2018-05-18T02:10:21.190Z,11.78
2018-05-18T02:11:21.225Z,11.79
2018-05-18T02:12:21.258Z,11.70
2018-05-18T02:13:21.292Z,11.76
2018-05-18T02:14:21.327Z,11.64
2018-05-18T02:15:21.361Z,11.82
2018-05-18T02:16:21.395Z,11.73
2018-05-18T02:17:21.427Z,11.75
2018-05-18T02:18:21.462Z,11.80
2018-05-18T02:19:21.496Z,11.70
2018-05-18T02:20:21.530Z,11.80
2018-05-18T02:21:21.566Z,11.83
2018-05-18T02:22:21.600Z,11.83
2018-05-18T02:23:21.633Z,11.82
2018-05-18T02:24:21.667Z,11.82
2018-05-18T02:25:21.706Z,11.86
2018-05-18T02:26:21.739Z,11.90
2018-05-18T02:27:21.769Z,11.95
2018-05-18T02:28:21.804Z,11.96
2018-05-18T02:29:21.841Z,11.82
2018-05-18T02:30:21.873Z,11.95
2018-05-18T02:31:21.907Z,11.91
2018-05-18T02:32:21.946Z,11.90
2018-05-18T02:33:21.980Z,11.90
2018-05-18T02:34:22.016Z,11.83
2018-05-18T02:35:22.044Z,11.83
2018-05-18T02:36:22.080Z,11.95
2018-05-18T02:37:22.114Z,11.90
2018-05-18T02:38:22.154Z,11.83
2018-05-18T02:39:22.183Z,11.88
2018-05-18T02:40:22.214Z,11.86
2018-05-18T02:41:22.249Z,11.83
2018-05-18T02:42:22.284Z,11.83
2018-05-18T02:43:22.320Z,11.83
2018-05-18T02:44:22.351Z,11.85
2018-05-18T02:45:22.384Z,11.91
2018-05-18T02:46:22.421Z,11.95
2018-05-18T02:47:22.453Z,11.94
2018-05-18T02:48:22.488Z,11.91
2018-05-18T02:49:22.524Z,11.88
2018-05-18T02:50:22.557Z,11.98
2018-05-18T02:51:22.590Z,11.95
2018-05-18T02:52:22.627Z,11.86
2018-05-18T02:53:22.669Z,11.90
2018-05-18T02:54:22.694Z,11.95
2018-05-18T02:55:22.732Z,11.95
2018-05-18T02:56:22.771Z,11.94
2018-05-18T02:57:22.805Z,11.91
2018-05-18T02:58:22.846Z,11.94
2018-05-18T02:59:22.864Z,11.94
2018-05-18T03:00:22.904Z,11.90
2018-05-18T03:01:22.934Z,11.95
2018-05-18T03:02:22.972Z,11.90
2018-05-18T03:03:23.001Z,11.82
2018-05-18T03:04:23.042Z,11.82
2018-05-18T03:05:23.121Z,11.72
2018-05-18T03:06:23.104Z,11.79
2018-05-18T03:07:23.139Z,11.78
2018-05-18T03:08:23.176Z,11.69
2018-05-18T03:09:23.207Z,11.88
2018-05-18T03:10:23.248Z,11.80
2018-05-18T03:11:23.279Z,11.70
2018-05-18T03:12:23.311Z,11.82
2018-05-18T03:13:23.349Z,11.83
2018-05-18T03:14:23.379Z,11.83
2018-05-18T03:15:23.411Z,11.83
2018-05-18T03:16:23.455Z,11.75
2018-05-18T03:17:23.484Z,11.78
2018-05-18T03:18:23.513Z,11.72
2018-05-18T03:19:23.547Z,11.76
2018-05-18T03:20:23.582Z,11.75
2018-05-18T03:21:23.615Z,11.78
2018-05-18T03:22:23.651Z,11.78
2018-05-18T03:23:23.683Z,11.78
2018-05-18T03:24:23.719Z,11.80
2018-05-18T03:25:23.754Z,11.79
2018-05-18T03:26:23.803Z,11.78
2018-05-18T03:27:23.820Z,11.85
2018-05-18T03:28:23.852Z,11.75
2018-05-18T03:29:23.886Z,11.70
2018-05-18T03:30:23.921Z,11.69
2018-05-18T03:31:23.960Z,11.70
2018-05-18T03:32:23.991Z,11.69
2018-05-18T03:33:24.035Z,11.62
2018-05-18T03:34:24.057Z,11.67
2018-05-18T03:35:24.099Z,11.69
2018-05-18T03:36:24.126Z,11.73
2018-05-18T03:37:24.159Z,11.67
2018-05-18T03:38:24.198Z,11.69
2018-05-18T03:39:24.228Z,11.64
2018-05-18T03:40:24.260Z,11.69
2018-05-18T03:41:24.296Z,11.70
2018-05-18T03:42:24.338Z,11.70
2018-05-18T03:43:24.364Z,11.73
2018-05-18T03:44:24.403Z,11.73
2018-05-18T03:45:24.431Z,11.67
2018-05-18T03:46:24.485Z,11.62
2018-05-18T03:47:24.503Z,11.70
2018-05-18T03:48:24.547Z,11.64
2018-05-18T03:49:24.573Z,11.69
2018-05-18T03:50:24.611Z,11.75
2018-05-18T03:51:24.636Z,11.65
2018-05-18T03:52:24.677Z,11.72
2018-05-18T03:53:24.705Z,11.69
2018-05-18T03:54:24.736Z,11.72
2018-05-18T03:55:24.771Z,11.72
2018-05-18T03:56:24.805Z,11.75
2018-05-18T03:57:24.839Z,11.69
2018-05-18T03:58:24.875Z,11.72
2018-05-18T03:59:24.907Z,11.82
2018-05-18T04:00:24.942Z,11.72
2018-05-18T04:01:25.002Z,11.79
2018-05-18T04:02:25.010Z,11.79
2018-05-18T04:03:25.046Z,11.75
2018-05-18T04:04:25.078Z,11.85
2018-05-18T04:05:25.118Z,11.83
2018-05-18T04:06:25.146Z,11.75
2018-05-18T04:07:25.181Z,11.73
2018-05-18T04:08:25.312Z,11.73
2018-05-18T04:09:25.247Z,11.79
2018-05-18T04:10:25.351Z,11.80
2018-05-18T04:11:25.315Z,11.75
2018-05-18T04:12:25.354Z,11.76
2018-05-18T04:13:25.384Z,11.73
2018-05-18T04:14:25.440Z,11.73
2018-05-18T04:15:25.452Z,11.64
2018-05-18T04:16:25.489Z,11.73
2018-05-18T04:17:25.520Z,11.75
2018-05-18T04:18:25.557Z,11.79
2018-05-18T04:19:25.621Z,11.67
2018-05-18T04:20:25.623Z,11.70
2018-05-18T04:21:25.658Z,11.88
2018-05-18T04:22:25.692Z,11.79
2018-05-18T04:23:25.726Z,11.86
2018-05-18T04:24:25.764Z,11.83
2018-05-18T04:25:25.807Z,11.86
2018-05-18T04:26:25.829Z,11.83
2018-05-18T04:27:25.863Z,11.86
2018-05-18T04:28:25.897Z,11.86
2018-05-18T04:29:25.930Z,11.85
2018-05-18T04:30:26.012Z,11.82
2018-05-18T04:31:25.999Z,11.86
2018-05-18T04:32:26.033Z,11.80
2018-05-18T04:33:26.066Z,11.80
2018-05-18T04:34:26.103Z,11.76
2018-05-18T04:35:26.139Z,11.72
2018-05-18T04:36:26.167Z,11.64
2018-05-18T04:37:26.204Z,11.73
2018-05-18T04:38:26.238Z,11.73
2018-05-18T04:39:26.270Z,11.67
2018-05-18T04:40:26.313Z,11.61
2018-05-18T04:41:26.343Z,11.67
2018-05-18T04:42:26.374Z,11.61
2018-05-18T04:43:26.412Z,11.61
2018-05-18T04:44:26.442Z,11.70
2018-05-18T04:45:26.479Z,11.69
2018-05-18T04:46:26.511Z,11.67
2018-05-18T04:47:26.543Z,11.62
2018-05-18T04:48:26.580Z,11.62
2018-05-18T04:49:26.612Z,11.62
2018-05-18T04:50:26.648Z,11.75
2018-05-18T04:51:26.681Z,11.67
2018-05-18T04:52:26.714Z,11.76
2018-05-18T04:53:26.749Z,11.79
2018-05-18T04:54:26.785Z,11.69
2018-05-18T04:55:26.826Z,11.67
2018-05-18T04:56:26.852Z,11.69
2018-05-18T04:57:26.887Z,11.79
2018-05-18T04:58:26.928Z,11.78
2018-05-18T04:59:26.953Z,11.78
2018-05-18T05:00:26.986Z,11.82
2018-05-18T05:01:27.021Z,11.65
2018-05-18T05:02:27.057Z,11.82
2018-05-18T05:03:27.091Z,11.76
2018-05-18T05:04:27.125Z,11.79
2018-05-18T05:05:27.235Z,11.79
2018-05-18T05:06:27.197Z,11.82
2018-05-18T05:07:27.229Z,11.88
2018-05-18T05:08:27.270Z,11.79
2018-05-18T05:09:27.295Z,11.75
2018-05-18T05:10:27.329Z,11.70
2018-05-18T05:11:27.363Z,11.65
2018-05-18T05:12:27.398Z,11.69
2018-05-18T05:13:27.429Z,11.67
2018-05-18T05:14:27.467Z,11.73
2018-05-18T05:15:27.500Z,11.78
2018-05-18T05:16:27.541Z,11.75
2018-05-18T05:17:27.569Z,11.83
2018-05-18T05:18:27.601Z,11.83
2018-05-18T05:19:27.635Z,11.86
2018-05-18T05:20:27.670Z,11.85
2018-05-18T05:21:27.703Z,11.91
2018-05-18T05:22:27.739Z,11.82
2018-05-18T05:23:27.772Z,11.83
2018-05-18T05:24:27.807Z,11.83
2018-05-18T05:25:27.841Z,11.83
2018-05-18T05:26:27.874Z,11.82
2018-05-18T05:27:27.909Z,11.86
2018-05-18T05:28:27.946Z,11.95
2018-05-18T05:29:27.980Z,11.86
2018-05-18T05:30:28.028Z,11.86
2018-05-18T05:31:28.046Z,11.82
2018-05-18T05:32:28.081Z,11.78
2018-05-18T05:33:28.121Z,11.80
2018-05-18T05:34:28.149Z,11.83
2018-05-18T05:35:28.189Z,11.83
2018-05-18T05:36:28.219Z,11.83
2018-05-18T05:37:28.255Z,11.86
2018-05-18T05:38:28.288Z,11.90
2018-05-18T05:39:28.320Z,11.90
2018-05-18T05:40:28.353Z,11.86
2018-05-18T05:41:28.390Z,11.76
2018-05-18T05:42:28.426Z,11.78
2018-05-18T05:43:28.456Z,11.79
2018-05-18T05:44:28.491Z,11.76
2018-05-18T05:45:28.527Z,11.75
2018-05-18T05:46:28.608Z,11.82
2018-05-18T05:47:28.594Z,11.72
2018-05-18T05:48:28.627Z,11.67
2018-05-18T05:49:28.664Z,11.69
2018-05-18T05:50:28.706Z,11.67
2018-05-18T05:51:28.731Z,11.61
2018-05-18T05:52:28.769Z,11.64
2018-05-18T05:53:28.799Z,11.58
2018-05-18T05:54:28.835Z,11.61
2018-05-18T05:55:28.867Z,11.55
2018-05-18T05:56:28.902Z,11.58
2018-05-18T05:57:28.938Z,11.47
2018-05-18T05:58:29.015Z,11.51
2018-05-18T05:59:29.006Z,11.55
2018-05-18T06:00:29.038Z,11.54
2018-05-18T06:01:29.072Z,11.54
2018-05-18T06:02:29.106Z,11.60
2018-05-18T06:03:29.144Z,11.61
2018-05-18T06:04:29.177Z,11.65
2018-05-18T06:05:29.283Z,11.65
2018-05-18T06:06:29.250Z,11.69
2018-05-18T06:07:29.286Z,11.69
2018-05-18T06:08:29.316Z,11.65
2018-05-18T06:09:29.345Z,11.70
2018-05-18T06:10:29.380Z,11.67
2018-05-18T06:11:29.422Z,11.64
2018-05-18T06:12:29.448Z,11.62
2018-05-18T06:13:29.483Z,11.55
2018-05-18T06:14:29.516Z,11.62
2018-05-18T06:15:29.548Z,11.69
2018-05-18T06:16:29.588Z,11.62
2018-05-18T06:17:29.619Z,11.62
2018-05-18T06:18:29.652Z,11.76
2018-05-18T06:19:29.710Z,11.75
2018-05-18T06:20:29.728Z,11.83
2018-05-18T06:21:29.751Z,11.86
2018-05-18T06:22:29.787Z,11.70
2018-05-18T06:23:29.820Z,11.79
2018-05-18T06:24:29.854Z,11.76
2018-05-18T06:25:29.890Z,11.85
2018-05-18T06:26:29.925Z,11.91
2018-05-18T06:27:30.056Z,11.91
2018-05-18T06:28:29.992Z,11.91
2018-05-18T06:29:30.031Z,11.90
2018-05-18T06:30:30.065Z,11.86
2018-05-18T06:31:30.103Z,11.88
2018-05-18T06:32:30.128Z,11.94
2018-05-18T06:33:30.172Z,11.86
2018-05-18T06:34:30.230Z,11.86
2018-05-18T06:35:30.331Z,11.83
2018-05-18T06:36:30.265Z,11.72
2018-05-18T06:37:30.300Z,11.73
2018-05-18T06:38:30.388Z,11.62
2018-05-18T06:39:30.367Z,11.65
2018-05-18T06:40:30.402Z,11.67
2018-05-18T06:41:30.436Z,11.65
2018-05-18T06:42:30.475Z,11.67
2018-05-18T06:43:30.513Z,11.58
2018-05-18T06:44:30.542Z,11.57
2018-05-18T06:45:30.572Z,11.46
2018-05-18T06:46:30.611Z,11.42
2018-05-18T06:47:30.638Z,11.46
2018-05-18T06:48:30.673Z,11.49
2018-05-18T06:49:30.710Z,11.51
2018-05-18T06:50:30.741Z,11.47
2018-05-18T06:51:30.775Z,11.51
2018-05-18T06:52:30.815Z,11.44
2018-05-18T06:53:30.857Z,11.51
2018-05-18T06:54:30.883Z,11.44
2018-05-18T06:55:30.910Z,11.49
2018-05-18T06:56:30.946Z,11.51
2018-05-18T06:57:30.981Z,11.51
2018-05-18T06:58:31.020Z,11.58
2018-05-18T06:59:31.047Z,11.65
2018-05-18T07:00:31.080Z,11.73
2018-05-18T07:01:31.117Z,11.67
2018-05-18T07:02:31.150Z,11.70
2018-05-18T07:03:31.183Z,11.78
2018-05-18T07:04:31.217Z,11.64
2018-05-18T07:05:31.303Z,11.65
2018-05-18T07:06:31.296Z,11.73
2018-05-18T07:07:31.321Z,11.62
2018-05-18T07:08:31.361Z,11.57
2018-05-18T07:09:31.388Z,11.64
2018-05-18T07:10:31.425Z,11.47
2018-05-18T07:11:31.454Z,11.47
2018-05-18T07:12:31.491Z,11.47
2018-05-18T07:13:31.531Z,11.54
2018-05-18T07:14:31.558Z,11.60
2018-05-18T07:15:31.593Z,11.58
2018-05-18T07:16:31.717Z,11.64
2018-05-18T07:17:31.660Z,11.61
2018-05-18T07:18:31.701Z,11.67
2018-05-18T07:19:31.728Z,11.61
2018-05-18T07:20:31.763Z,11.61
2018-05-18T07:21:31.796Z,11.58
2018-05-18T07:22:31.844Z,11.54
2018-05-18T07:23:31.866Z,11.60
2018-05-18T07:24:31.900Z,11.58
2018-05-18T07:25:31.936Z,11.69
2018-05-18T07:26:31.970Z,11.67
2018-05-18T07:27:32.001Z,11.65
2018-05-18T07:28:32.035Z,11.64
2018-05-18T07:29:32.070Z,11.75
2018-05-18T07:30:32.103Z,11.64
2018-05-18T07:31:32.242Z,11.75
2018-05-18T07:32:32.180Z,11.72
2018-05-18T07:33:32.207Z,11.70
2018-05-18T07:34:32.238Z,11.69
2018-05-18T07:35:32.276Z,11.88
2018-05-18T07:36:32.310Z,11.79
2018-05-18T07:37:32.343Z,11.82
2018-05-18T07:38:32.376Z,11.70
2018-05-18T07:39:32.409Z,11.86
2018-05-18T07:40:32.444Z,11.90
2018-05-18T07:41:32.478Z,11.94
2018-05-18T07:42:32.517Z,12.07
2018-05-18T07:43:32.553Z,12.04
2018-05-18T07:44:32.581Z,12.10
2018-05-18T07:45:32.627Z,12.16
2018-05-18T07:46:32.648Z,12.23
2018-05-18T07:47:32.682Z,12.31
2018-05-18T07:48:32.729Z,12.42
2018-05-18T07:49:32.753Z,12.59
2018-05-18T07:50:32.797Z,12.50
2018-05-18T07:51:32.824Z,12.52
2018-05-18T07:52:32.864Z,12.56
2018-05-18T07:53:32.907Z,12.50
2018-05-18T07:54:32.930Z,12.42
2018-05-18T07:55:32.961Z,12.42
2018-05-18T07:56:32.997Z,12.54
2018-05-18T07:57:33.038Z,12.68
2018-05-18T07:58:33.064Z,12.59
2018-05-18T07:59:33.106Z,12.67
2018-05-18T08:00:33.131Z,12.65
2018-05-18T08:01:33.175Z,12.79
2018-05-18T08:02:33.203Z,12.78
2018-05-18T08:03:33.240Z,12.65
2018-05-18T08:04:33.279Z,12.71
2018-05-18T08:05:33.308Z,12.78
2018-05-18T08:06:33.345Z,12.74
2018-05-18T08:07:33.434Z,12.77
2018-05-18T08:08:33.411Z,12.87
2018-05-18T08:09:33.445Z,12.93
2018-05-18T08:10:33.487Z,12.85
2018-05-18T08:11:33.517Z,12.96
2018-05-18T08:12:33.553Z,12.97
2018-05-18T08:13:33.589Z,12.92
2018-05-18T08:14:33.629Z,12.79
2018-05-18T08:15:33.657Z,12.86
2018-05-18T08:16:33.692Z,13.00
2018-05-18T08:17:33.728Z,13.01
2018-05-18T08:18:33.766Z,13.12
2018-05-18T08:19:33.795Z,13.10
2018-05-18T08:20:33.834Z,13.11
2018-05-18T08:21:33.887Z,13.10
2018-05-18T08:22:33.902Z,13.26
2018-05-18T08:23:33.935Z,13.38
2018-05-18T08:24:33.970Z,13.62
2018-05-18T08:25:34.007Z,13.70
2018-05-18T08:26:34.043Z,13.55
2018-05-18T08:27:34.136Z,13.63
2018-05-18T08:28:34.113Z,13.67
2018-05-18T08:29:34.148Z,13.81
2018-05-18T08:30:34.184Z,13.91
2018-05-18T08:31:34.219Z,13.71
2018-05-18T08:32:34.257Z,13.69
2018-05-18T08:33:34.290Z,13.67
2018-05-18T08:34:34.324Z,13.75
2018-05-18T08:35:34.362Z,13.70
2018-05-18T08:36:34.396Z,13.70
2018-05-18T08:37:34.433Z,13.88
2018-05-18T08:38:34.468Z,13.91
2018-05-18T08:39:34.503Z,13.92
2018-05-18T08:40:34.538Z,13.85
2018-05-18T08:41:34.577Z,13.99
2018-05-18T08:42:34.610Z,14.06
2018-05-18T08:43:34.645Z,14.24
2018-05-18T08:44:34.683Z,14.20
2018-05-18T08:45:34.718Z,14.20
2018-05-18T08:46:34.758Z,14.27
2018-05-18T08:47:34.804Z,13.95
2018-05-18T08:48:34.827Z,13.99
2018-05-18T08:49:34.863Z,13.85
2018-05-18T08:50:34.898Z,13.87
2018-05-18T08:51:34.949Z,13.67
2018-05-18T08:52:34.972Z,13.77
2018-05-18T08:53:35.009Z,13.79
2018-05-18T08:54:35.046Z,13.85
2018-05-18T08:55:35.081Z,13.87
2018-05-18T08:56:35.116Z,13.84
2018-05-18T08:57:35.152Z,13.84
2018-05-18T08:58:35.187Z,13.89
2018-05-18T08:59:35.224Z,13.71
2018-05-18T09:00:35.335Z,13.69
2018-05-18T09:01:35.314Z,13.84
2018-05-18T09:02:35.337Z,14.00
2018-05-18T09:03:35.386Z,14.09
2018-05-18T09:04:35.416Z,14.20
2018-05-18T09:05:35.442Z,14.20
2018-05-18T09:06:35.481Z,14.10
2018-05-18T09:07:35.514Z,14.17
2018-05-18T09:08:35.553Z,14.24
2018-05-18T09:09:35.586Z,14.17
2018-05-18T09:10:35.630Z,14.21
2018-05-18T09:11:35.660Z,13.97
2018-05-18T09:12:35.701Z,13.91
2018-05-18T09:13:35.732Z,14.00
2018-05-18T09:14:35.767Z,13.97
2018-05-18T09:15:35.802Z,14.06
2018-05-18T09:16:35.839Z,14.22
2018-05-18T09:17:35.885Z,14.37
2018-05-18T09:18:35.924Z,14.45
2018-05-18T09:19:35.951Z,14.35
2018-05-18T09:20:35.986Z,14.42
2018-05-18T09:21:36.023Z,14.46
2018-05-18T09:22:36.065Z,14.22
2018-05-18T09:23:36.102Z,14.35
2018-05-18T09:24:36.132Z,14.43
2018-05-18T09:25:36.184Z,14.47
2018-05-18T09:26:36.205Z,14.65
2018-05-18T09:27:36.241Z,14.62
2018-05-18T09:28:36.277Z,14.72
2018-05-18T09:29:36.316Z,14.73
2018-05-18T09:30:36.361Z,14.77
2018-05-18T09:31:36.390Z,14.89
2018-05-18T09:32:36.423Z,15.13
2018-05-18T09:33:36.469Z,15.23
2018-05-18T09:34:36.496Z,15.13
2018-05-18T09:35:36.534Z,15.35
2018-05-18T09:36:36.571Z,15.38
2018-05-18T09:37:36.608Z,15.47
2018-05-18T09:38:36.643Z,15.46
2018-05-18T09:39:36.681Z,15.54
2018-05-18T09:40:36.719Z,15.47
2018-05-18T09:41:36.752Z,15.67
2018-05-18T09:42:36.791Z,15.46
2018-05-18T09:43:36.829Z,15.50
2018-05-18T09:44:36.866Z,15.69
2018-05-18T09:45:36.911Z,15.80
2018-05-18T09:46:36.991Z,15.82
2018-05-18T09:47:37.082Z,15.80
2018-05-18T09:48:37.019Z,15.80
2018-05-18T09:49:37.052Z,15.78
2018-05-18T09:50:37.090Z,15.82
2018-05-18T09:51:37.134Z,15.89
2018-05-18T09:52:37.164Z,15.67
2018-05-18T09:53:37.201Z,15.76
2018-05-18T09:54:37.488Z,15.86
2018-05-18T09:55:37.299Z,16.07
2018-05-18T09:56:37.315Z,15.86
2018-05-18T09:57:37.353Z,15.93
2018-05-18T09:58:37.390Z,16.15
2018-05-18T09:59:37.428Z,16.31
2018-05-18T10:00:37.481Z,16.41
2018-05-18T10:01:37.504Z,16.09
2018-05-18T10:02:37.549Z,16.27
2018-05-18T10:03:37.579Z,16.15
2018-05-18T10:04:37.624Z,15.80
2018-05-18T10:05:37.664Z,16.00
2018-05-18T10:06:37.694Z,15.90
2018-05-18T10:07:37.730Z,15.86
2018-05-18T10:08:37.771Z,16.00
2018-05-18T10:09:37.806Z,15.94
2018-05-18T10:10:37.848Z,16.15
2018-05-18T10:11:37.884Z,16.28
2018-05-18T10:12:37.919Z,16.15
2018-05-18T10:13:37.965Z,16.05
2018-05-18T10:14:38.000Z,16.09
2018-05-18T10:15:38.033Z,16.12
2018-05-18T10:16:38.071Z,16.27
2018-05-18T10:17:38.110Z,16.30
2018-05-18T10:18:38.293Z,15.86
2018-05-18T10:19:38.186Z,15.92
2018-05-18T10:20:38.225Z,15.72
2018-05-18T10:21:38.262Z,15.72
2018-05-18T10:22:38.299Z,15.64
2018-05-18T10:23:38.339Z,15.34
2018-05-18T10:24:38.375Z,15.41
2018-05-18T10:25:38.417Z,15.38
2018-05-18T10:26:38.453Z,15.36
2018-05-18T10:27:38.489Z,15.36
2018-05-18T10:28:38.528Z,15.36
2018-05-18T10:29:38.564Z,15.21
2018-05-18T10:30:38.604Z,15.31
2018-05-18T10:31:38.639Z,15.17
2018-05-18T10:32:38.685Z,15.13
2018-05-18T10:33:38.715Z,15.13
2018-05-18T10:34:38.755Z,15.16
2018-05-18T10:35:38.796Z,15.23
2018-05-18T10:36:38.828Z,15.13
2018-05-18T10:37:38.919Z,15.10
2018-05-18T10:38:38.903Z,15.10
2018-05-18T10:39:38.971Z,15.17
2018-05-18T10:40:38.976Z,15.29
2018-05-18T10:41:39.015Z,15.41
2018-05-18T10:42:39.055Z,15.38
2018-05-18T10:43:39.109Z,15.64
2018-05-18T10:44:39.127Z,15.78
2018-05-18T10:45:39.164Z,15.83
2018-05-18T10:46:39.203Z,15.90
2018-05-18T10:47:39.242Z,16.07
2018-05-18T10:48:39.279Z,16.41
2018-05-18T10:49:39.316Z,16.61
2018-05-18T10:50:39.356Z,16.73
2018-05-18T10:51:39.396Z,17.03
2018-05-18T10:52:39.426Z,16.97
2018-05-18T10:53:39.466Z,17.21
2018-05-18T10:54:39.503Z,17.28
2018-05-18T10:55:39.540Z,17.41
2018-05-18T10:56:39.579Z,17.58
2018-05-18T10:57:39.616Z,17.51
2018-05-18T10:58:39.737Z,17.54
2018-05-18T10:59:39.695Z,17.52
2018-05-18T11:00:39.732Z,17.54
2018-05-18T11:01:39.772Z,17.43
2018-05-18T11:02:39.809Z,17.40
2018-05-18T11:03:39.845Z,17.22
2018-05-18T11:04:39.886Z,17.18
2018-05-18T11:05:40.078Z,17.16
2018-05-18T11:06:39.963Z,17.04
2018-05-18T11:07:40.002Z,17.00
2018-05-18T11:08:40.045Z,17.03
2018-05-18T11:09:40.078Z,16.91
2018-05-18T11:10:40.116Z,16.94
2018-05-18T11:11:40.152Z,16.81
2018-05-18T11:12:40.192Z,16.53
2018-05-18T11:13:40.238Z,16.66
2018-05-18T11:14:40.270Z,16.58
2018-05-18T11:15:40.306Z,16.50
2018-05-18T11:16:40.347Z,16.52
2018-05-18T11:17:40.390Z,16.50
2018-05-18T11:18:40.430Z,16.53
2018-05-18T11:19:40.475Z,16.31
2018-05-18T11:20:40.500Z,16.45
2018-05-18T11:21:40.537Z,16.67
2018-05-18T11:22:40.575Z,16.61
2018-05-18T11:23:40.613Z,16.64
2018-05-18T11:24:40.659Z,16.68
2018-05-18T11:25:40.689Z,16.68
2018-05-18T11:26:40.730Z,16.67
2018-05-18T11:27:40.766Z,16.52
2018-05-18T11:28:40.806Z,16.34
2018-05-18T11:29:40.848Z,16.27
2018-05-18T11:30:40.884Z,16.12
2018-05-18T11:31:40.921Z,16.14
2018-05-18T11:32:40.960Z,16.31
2018-05-18T11:33:40.997Z,16.42
2018-05-18T11:34:41.035Z,16.49
2018-05-18T11:35:41.075Z,16.71
2018-05-18T11:36:41.124Z,16.82
2018-05-18T11:37:41.150Z,16.93
2018-05-18T11:38:41.188Z,17.01
2018-05-18T11:39:41.228Z,17.00
2018-05-18T11:40:41.265Z,16.78
2018-05-18T11:41:41.305Z,17.00
2018-05-18T11:42:41.342Z,17.06
2018-05-18T11:43:41.380Z,17.01
2018-05-18T11:44:41.429Z,17.11
2018-05-18T11:45:41.456Z,17.06
2018-05-18T11:46:41.735Z,17.11
2018-05-18T11:47:41.534Z,17.34
2018-05-18T11:48:41.573Z,17.43
2018-05-18T11:49:41.609Z,17.31
2018-05-18T11:50:41.648Z,17.51
2018-05-18T11:51:41.687Z,17.64
2018-05-18T11:52:41.726Z,17.55
2018-05-18T11:53:41.764Z,17.43
2018-05-18T11:54:41.881Z,17.25
2018-05-18T11:55:41.843Z,17.12
2018-05-18T11:56:41.881Z,17.25
2018-05-18T11:57:41.934Z,17.18
2018-05-18T11:58:42.008Z,16.67
2018-05-18T11:59:41.995Z,16.58
2018-05-18T12:00:42.134Z,16.46
2018-05-18T12:02:02.023Z,16.15
2018-05-18T12:03:02.058Z,16.07
2018-05-18T12:04:02.105Z,15.93
2018-05-18T12:05:02.184Z,16.07
2018-05-18T12:06:02.178Z,16.01
2018-05-18T12:07:02.213Z,15.94
2018-05-18T12:08:02.250Z,15.93
2018-05-18T12:09:02.291Z,15.97
2018-05-18T12:10:02.335Z,15.97
2018-05-18T12:11:02.368Z,16.20
2018-05-18T12:12:02.408Z,16.30
2018-05-18T12:13:02.452Z,16.38
2018-05-18T12:14:02.490Z,16.34
2018-05-18T12:15:02.522Z,16.31
2018-05-18T12:16:02.559Z,16.45
2018-05-18T12:17:02.597Z,16.15
2018-05-18T12:18:02.633Z,16.11
2018-05-18T12:19:02.684Z,16.11
2018-05-18T12:20:02.718Z,16.28
2018-05-18T12:21:02.754Z,16.14
2018-05-18T12:22:02.797Z,16.39
2018-05-18T12:23:02.831Z,16.61
2018-05-18T12:24:02.866Z,16.58
2018-05-18T12:25:02.901Z,16.50
2018-05-18T12:26:03.028Z,16.41
2018-05-18T12:27:02.979Z,16.45
2018-05-18T12:28:03.019Z,16.45
2018-05-18T12:29:03.055Z,16.43
2018-05-18T12:30:03.101Z,16.48
2018-05-18T12:31:03.138Z,16.35
2018-05-18T12:32:03.175Z,16.48
2018-05-18T12:33:03.210Z,16.52
2018-05-18T12:34:03.245Z,16.71
2018-05-18T12:35:03.283Z,16.85
2018-05-18T12:36:03.322Z,16.85
2018-05-18T12:37:03.363Z,16.82
2018-05-18T12:38:03.495Z,16.91
2018-05-18T12:39:03.437Z,16.86
2018-05-18T12:40:03.475Z,16.83
2018-05-18T12:41:03.515Z,16.50
2018-05-18T12:42:03.594Z,16.48
2018-05-18T12:43:03.592Z,16.68
2018-05-18T12:44:03.628Z,16.49
2018-05-18T12:45:03.666Z,16.50
2018-05-18T12:46:03.706Z,16.48
2018-05-18T12:47:03.743Z,16.52
2018-05-18T12:48:03.780Z,16.41
2018-05-18T12:49:03.828Z,16.33
2018-05-18T12:50:03.856Z,16.48
2018-05-18T12:51:03.894Z,16.43
2018-05-18T12:52:03.942Z,16.50
2018-05-18T12:53:03.978Z,16.50